createdAt,value
2023-05-21T00:01:55.739Z,1018.055
2023-05-21T00:06:55.480Z,1018.022
2023-05-21T00:11:55.450Z,1018.04
2023-05-21T00:16:55.414Z,1017.968
2023-05-21T00:21:55.877Z,1017.926
2023-05-21T00:26:55.477Z,1017.919
2023-05-21T00:31:56.028Z,1017.871
2023-05-21T00:36:55.762Z,1017.845
2023-05-21T00:41:56.758Z,1017.849
2023-05-21T00:46:57.340Z,1017.788
2023-05-21T00:51:55.719Z,1017.765
2023-05-21T00:56:56.068Z,1017.725
2023-05-21T01:01:56.606Z,1017.695
2023-05-21T01:06:56.246Z,1017.686
2023-05-21T01:11:55.735Z,1017.717
2023-05-21T01:16:56.273Z,1017.667
2023-05-21T01:21:56.637Z,1017.563
2023-05-21T01:26:55.477Z,1017.571
2023-05-21T01:32:03.296Z,1017.589
2023-05-21T01:36:59.499Z,1017.536
2023-05-21T01:41:57.343Z,1017.47
2023-05-21T01:46:56.547Z,1017.412
2023-05-21T01:51:55.717Z,1017.389
2023-05-21T01:56:55.644Z,1017.405
2023-05-21T02:01:55.646Z,1017.389
2023-05-21T02:06:55.558Z,1017.379
2023-05-21T02:11:55.530Z,1017.318
2023-05-21T02:16:56.796Z,1017.243
2023-05-21T02:21:55.581Z,1017.207
2023-05-21T02:26:55.678Z,1017.165
2023-05-21T02:31:55.581Z,1017.195
2023-05-21T02:36:56.058Z,1017.207
2023-05-21T02:41:55.556Z,1017.142
2023-05-21T02:46:55.564Z,1017.204
2023-05-21T02:51:55.575Z,1017.184
2023-05-21T02:56:55.617Z,1017.115
2023-05-21T03:01:55.599Z,1017.205
2023-05-21T03:06:56.460Z,1017.191
2023-05-21T03:11:55.628Z,1017.172
2023-05-21T03:16:55.645Z,1017.111
2023-05-21T03:21:56.407Z,1017.026
2023-05-21T03:26:55.628Z,1016.996
2023-05-21T03:31:55.711Z,1017.053
2023-05-21T03:36:55.655Z,1016.994
2023-05-21T03:41:55.782Z,1016.99
2023-05-21T03:46:55.677Z,1017.021
2023-05-21T03:51:55.888Z,1017.008
2023-05-21T03:56:55.650Z,1017.025
2023-05-21T04:01:55.725Z,1016.974
2023-05-21T04:06:55.699Z,1017.025
2023-05-21T04:11:55.852Z,1017.081
2023-05-21T04:16:56.670Z,1017.057
2023-05-21T04:21:56.094Z,1017.092
2023-05-21T04:26:55.993Z,1017.098
2023-05-21T04:31:55.677Z,1017.176
2023-05-21T04:36:56.690Z,1017.188
2023-05-21T04:41:56.476Z,1017.227
2023-05-21T04:46:57.347Z,1017.226
2023-05-21T04:51:55.728Z,1017.28
2023-05-21T04:56:55.839Z,1017.203
2023-05-21T05:01:55.692Z,1017.233
2023-05-21T05:06:55.776Z,1017.095
2023-05-21T05:11:55.791Z,1017.138
2023-05-21T05:16:59.905Z,1017.012
2023-05-21T05:21:55.782Z,1017.003
2023-05-21T05:26:55.789Z,1016.948
2023-05-21T05:31:55.735Z,1016.946
2023-05-21T05:36:57.180Z,1016.962
2023-05-21T05:41:55.747Z,1016.925
2023-05-21T05:46:55.966Z,1016.931
2023-05-21T05:51:56.603Z,1016.977
2023-05-21T05:56:55.873Z,1016.936
2023-05-21T06:01:55.752Z,1016.946
2023-05-21T06:06:57.392Z,1016.977
2023-05-21T06:11:55.770Z,1016.967
2023-05-21T06:16:55.754Z,1016.897
2023-05-21T06:21:55.934Z,1017
2023-05-21T06:26:55.978Z,1017.029
2023-05-21T06:31:55.865Z,1017.057
2023-05-21T06:36:55.808Z,1017.013
2023-05-21T06:41:55.793Z,1017.011
2023-05-21T06:46:55.818Z,1017.015
2023-05-21T06:51:55.833Z,1016.979
2023-05-21T06:56:55.842Z,1016.885
2023-05-21T07:01:55.891Z,1016.84
2023-05-21T07:06:56.508Z,1016.836
2023-05-21T07:11:56.098Z,1016.857
2023-05-21T07:16:55.877Z,1016.862
2023-05-21T07:21:56.540Z,1016.739
2023-05-21T07:26:55.885Z,1016.79
2023-05-21T07:31:55.855Z,1016.827
2023-05-21T07:36:55.808Z,1016.808
2023-05-21T07:41:55.803Z,1016.731
2023-05-21T07:46:55.813Z,1016.718
2023-05-21T07:51:55.886Z,1016.662
2023-05-21T07:56:56.305Z,1016.738
2023-05-21T08:01:55.874Z,1016.681
2023-05-21T08:06:56.368Z,1016.697
2023-05-21T08:11:55.901Z,1016.67
2023-05-21T08:16:55.916Z,1016.614
2023-05-21T08:21:56.053Z,1016.603
2023-05-21T08:26:55.943Z,1016.592
2023-05-21T08:31:56.312Z,1016.575
2023-05-21T08:36:55.842Z,1016.564
2023-05-21T08:42:00.487Z,1016.509
2023-05-21T08:46:57.836Z,1016.537
2023-05-21T08:51:57.006Z,1016.576
2023-05-21T08:56:57.051Z,1016.64
2023-05-21T09:01:57.466Z,1016.667
2023-05-21T09:06:57.770Z,1016.642
2023-05-21T09:11:55.933Z,1016.604
2023-05-21T09:16:56.009Z,1016.556
2023-05-21T09:21:56.295Z,1016.481
2023-05-21T09:26:55.976Z,1016.421
2023-05-21T09:31:56.137Z,1016.372
2023-05-21T09:37:01.546Z,1016.416
2023-05-21T09:41:55.967Z,1016.337
2023-05-21T09:47:00.526Z,1016.323
2023-05-21T09:51:58.531Z,1016.466
2023-05-21T09:56:56.298Z,1016.398
2023-05-21T10:01:57.961Z,1016.258
2023-05-21T10:06:56.494Z,1016.235
2023-05-21T10:11:58.225Z,1016.221
2023-05-21T10:16:56.380Z,1016.151
2023-05-21T10:21:57.102Z,1016.084
2023-05-21T10:26:56.273Z,1016.018
2023-05-21T10:31:56.519Z,1015.958
2023-05-21T10:36:57.088Z,1015.946
2023-05-21T10:42:00.715Z,1015.842
2023-05-21T10:47:04.512Z,1015.713
2023-05-21T10:51:58.569Z,1015.747
2023-05-21T10:57:03.130Z,1015.694
2023-05-21T11:01:57.014Z,1015.694
2023-05-21T11:06:56.326Z,1015.701
2023-05-21T11:12:00.883Z,1015.66
2023-05-21T11:16:56.948Z,1015.617
2023-05-21T11:21:59.073Z,1015.605
2023-05-21T11:27:08.698Z,1015.612
2023-05-21T11:32:05.669Z,1015.54
2023-05-21T11:37:06.019Z,1015.471
2023-05-21T11:42:04.075Z,1015.505
2023-05-21T11:46:56.192Z,1015.52
2023-05-21T11:51:56.538Z,1015.497
2023-05-21T11:56:56.557Z,1015.475
2023-05-21T12:01:56.103Z,1015.428
2023-05-21T12:06:58.390Z,1015.49
2023-05-21T12:11:57.056Z,1015.511
2023-05-21T12:16:56.186Z,1015.443
2023-05-21T12:21:56.293Z,1015.369
2023-05-21T12:26:59.242Z,1015.33
2023-05-21T12:31:56.339Z,1015.364
2023-05-21T12:36:56.142Z,1015.329
2023-05-21T12:41:57.341Z,1015.318
2023-05-21T12:46:56.202Z,1015.249
2023-05-21T12:51:56.167Z,1015.181
2023-05-21T12:56:56.725Z,1015.172
2023-05-21T13:01:56.902Z,1015.161
2023-05-21T13:06:56.121Z,1015.186
2023-05-21T13:11:56.154Z,1015.104
2023-05-21T13:16:56.279Z,1015.076
2023-05-21T13:21:56.524Z,1014.987
2023-05-21T13:26:56.255Z,1015.01
2023-05-21T13:31:56.295Z,1014.905
2023-05-21T13:36:56.209Z,1014.831
2023-05-21T13:41:56.224Z,1014.779
2023-05-21T13:46:56.318Z,1014.751
2023-05-21T13:51:57.964Z,1014.737
2023-05-21T13:56:56.479Z,1014.7
2023-05-21T14:01:57.955Z,1014.704
2023-05-21T14:06:56.655Z,1014.69
2023-05-21T14:11:57.052Z,1014.708
2023-05-21T14:16:56.336Z,1014.825
2023-05-21T14:21:56.621Z,1014.719
2023-05-21T14:26:56.278Z,1014.697
2023-05-21T14:31:56.366Z,1014.658
2023-05-21T14:36:56.301Z,1014.631
2023-05-21T14:41:56.324Z,1014.595
2023-05-21T14:46:56.330Z,1014.603
2023-05-21T14:51:56.242Z,1014.594
2023-05-21T14:56:56.249Z,1014.606
2023-05-21T15:01:56.647Z,1014.567
2023-05-21T15:06:56.240Z,1014.537
2023-05-21T15:11:56.304Z,1014.489
2023-05-21T15:16:56.333Z,1014.545
2023-05-21T15:21:56.306Z,1014.514
2023-05-21T15:26:56.327Z,1014.505
2023-05-21T15:31:56.431Z,1014.423
2023-05-21T15:36:57.825Z,1014.401
2023-05-21T15:41:57.027Z,1014.342
2023-05-21T15:46:56.403Z,1014.28
2023-05-21T15:51:57.818Z,1014.19
2023-05-21T15:56:56.337Z,1014.214
2023-05-21T16:01:56.363Z,1014.142
2023-05-21T16:06:56.345Z,1014.222
2023-05-21T16:11:56.381Z,1014.085
2023-05-21T16:16:56.505Z,1014.063
2023-05-21T16:21:56.416Z,1014.123
2023-05-21T16:26:56.388Z,1014.115
2023-05-21T16:31:56.386Z,1014.105
2023-05-21T16:36:56.550Z,1014.061
2023-05-21T16:41:59.477Z,1014.015
2023-05-21T16:46:56.449Z,1014.022
2023-05-21T16:51:56.430Z,1014.005
2023-05-21T16:56:56.543Z,1013.979
2023-05-21T17:01:56.609Z,1013.99
2023-05-21T17:06:56.508Z,1014.047
2023-05-21T17:11:56.531Z,1014.103
2023-05-21T17:16:56.451Z,1014.162
2023-05-21T17:21:58.099Z,1014.172
2023-05-21T17:26:56.608Z,1014.196
2023-05-21T17:31:56.656Z,1014.131
2023-05-21T17:36:57.561Z,1014.11
2023-05-21T17:41:56.508Z,1014.142
2023-05-21T17:46:56.652Z,1014.151
2023-05-21T17:51:57.130Z,1014.189
2023-05-21T17:56:56.511Z,1014.189
2023-05-21T18:01:57.686Z,1014.253
2023-05-21T18:06:56.526Z,1014.26
2023-05-21T18:11:57.903Z,1014.239
2023-05-21T18:16:56.731Z,1014.312
2023-05-21T18:21:56.593Z,1014.322
2023-05-21T18:26:56.511Z,1014.333
2023-05-21T18:31:56.641Z,1014.352
2023-05-21T18:36:58.617Z,1014.315
2023-05-21T18:46:57.601Z,1014.249
2023-05-21T18:51:56.596Z,1014.17
2023-05-21T18:56:59.512Z,1014.133
2023-05-21T19:01:56.622Z,1014.127
2023-05-21T19:06:56.517Z,1014.106
2023-05-21T19:11:57.187Z,1014.113
2023-05-21T19:16:56.599Z,1014.099
2023-05-21T19:21:56.704Z,1014.072
2023-05-21T19:26:56.624Z,1014.086
2023-05-21T19:31:57.234Z,1014.075
2023-05-21T19:36:56.594Z,1014.079
2023-05-21T19:41:56.631Z,1014.187
2023-05-21T19:46:56.628Z,1014.167
2023-05-21T19:51:56.763Z,1014.193
2023-05-21T19:56:56.757Z,1014.179
2023-05-21T20:01:56.773Z,1014.211
2023-05-21T20:06:56.691Z,1014.187
2023-05-21T20:11:56.984Z,1014.198
2023-05-21T20:16:58.377Z,1014.07
2023-05-21T20:21:56.672Z,1014.124
2023-05-21T20:26:56.632Z,1014.169
2023-05-21T20:31:56.660Z,1014.145
2023-05-21T20:36:57.825Z,1014.11
2023-05-21T20:41:58.017Z,1014.061
2023-05-21T20:46:57.469Z,1013.97
2023-05-21T20:51:56.709Z,1013.949
2023-05-21T20:56:58.890Z,1013.902
2023-05-21T21:01:57.140Z,1013.829
2023-05-21T21:06:56.959Z,1013.761
2023-05-21T21:11:56.704Z,1013.66
2023-05-21T21:16:56.789Z,1013.706
2023-05-21T21:21:56.787Z,1013.799
2023-05-21T21:26:56.727Z,1013.852
2023-05-21T21:31:56.767Z,1013.953
2023-05-21T21:36:57.322Z,1014.114
2023-05-21T21:41:56.699Z,1014.282
2023-05-21T21:46:56.729Z,1014.496
2023-05-21T21:51:57.674Z,1014.532
2023-05-21T21:56:56.725Z,1014.493
2023-05-21T22:01:56.746Z,1014.477
2023-05-21T22:06:57.205Z,1014.45
2023-05-21T22:11:57.590Z,1014.404
2023-05-21T22:16:57.022Z,1014.288
2023-05-21T22:21:59.778Z,1014.166
2023-05-21T22:26:56.745Z,1013.991
2023-05-21T22:31:56.753Z,1014.013
2023-05-21T22:36:56.758Z,1014.005
2023-05-21T22:41:57.038Z,1014.088
2023-05-21T22:47:00.152Z,1014.061
2023-05-21T22:51:59.205Z,1014.013
2023-05-21T22:56:56.790Z,1013.958
2023-05-21T23:01:56.987Z,1013.975
2023-05-21T23:06:56.833Z,1014.066
2023-05-21T23:11:56.834Z,1014.178
2023-05-21T23:17:02.024Z,1014.235
2023-05-21T23:21:56.838Z,1014.254
2023-05-21T23:27:01.647Z,1014.167
2023-05-21T23:31:56.911Z,1014.232
2023-05-21T23:36:58.745Z,1014.193
2023-05-21T23:41:57.013Z,1014.176
2023-05-21T23:46:56.834Z,1014.152
2023-05-21T23:51:57.044Z,1014.153
2023-05-21T23:56:56.874Z,1014.035
